Terminal Aerodrome Forecast
Issued by NWS

Home | Current Version | Previous Version | Text Only | Print | Product List | Glossary On
Versions: 1 2 3 4 5 6 7 8 9 10 11 12 13 14 15 16 17 18 19 20 21 22 23 24 25 26 27
000
FTAK31 PAFA 010527
TAFAOT
TAF
PAOT 010527Z 0106/0206 24007KT P6SM BKN007 OVC012
     FM010900 25005KT 4SM BR OVC003
     FM011800 25005KT 6SM BR OVC007
     FM012200 27005KT P6SM OVC015
     FM020300 28007KT P6SM FEW015 SCT025 BKN050=

USA.gov is the U.S. government's official web portal to all federal, state and local government web resources and services.